CYCS

Chesterfield Inlet Airport

Chesterfield Inlet, Canada
METAR CYCS 202200Z 33010KT 15SM BKN046 09/02 A2983 RMK SC5 9.4/3.6/0.0/ LAST STFD OBS/ NXT 211200 SLP104
Observed Flight Rules
Aug-20 @ 22:00 UTC (2 hours ago) Visual Flight Rules
Wind Visibility Clouds
330° at 10 knots 15 miles
  • Broken at 4,600' AGL
Temperatures Readings
Current 9°C / 48°F
Dewpoint 2°C / 36°F
Humidity 62%
Altimeter 29.83" Hg
Pressure 1010.4 hPa
Elevation 11
METAR CYCS 202200Z 33010KT 15SM BKN046 09/02 A2983 RMK SC5 9.4/3.6/0.0/ LAST STFD OBS/ NXT 211200 SLP104
Observed Flight Rules
Aug-20 @ 22:00 UTC
(2 hours ago)
VFR
Wind Visibility
330° at 10 knots 15 miles
Clouds
  • Broken at 4,600' AGL
Temperature Dewpoint
9°C / 48°F 2°C / 36°F
Humidity Altimeter Pressure
62% 29.83" Hg 1010.4 hPa